METAR Data
IDs: Format: Raw Decoded Include TAF

Data at: 0237 UTC 24 Sep 2018

KBRO 240153Z 12004KT 10SM CLR 27/23 A2987 RMK AO2 SLP114 T02720233
KBRO 240053Z 09005KT 10SM CLR 28/23 A2986 RMK AO2 SLP111 T02780228
KBRO 232353Z 11009KT 10SM BKN045 29/23 A2985 RMK AO2 SLP108 T02940228 10328 20283 55003
KBRO 232253Z 00000KT 10SM BKN043 33/22 A2985 RMK AO2 SLP107 T03280222
KBRO 232153Z 00000KT 10SM CLR 33/22 A2985 RMK AO2 SLP106 T03280222
KBRO 232053Z 28004KT 10SM BKN040 32/22 A2986 RMK AO2 SLP111 T03170217 56035
KBRO 231953Z 24003KT 10SM FEW036 31/22 A2989 RMK AO2 SLP120 T03110222
KBRO 231853Z VRB04KT 10SM CLR 31/23 A2993 RMK AO2 SLP134 T03060228
KBRO 231753Z VRB04KT 10SM CLR 28/22 A2997 RMK AO2 SLP146 T02830222 10289 20233 58002
KBRO 231653Z 34005KT 10SM CLR 28/22 A2998 RMK AO2 SLP151 T02830222
KBRO 231553Z 33004KT 10SM SCT080 27/22 A2998 RMK AO2 SLP152 T02720222
KBRO 231453Z 32005KT 10SM SCT070 26/22 A2997 RMK AO2 SLP149 T02560222 51018
KBRO 231353Z 31005KT 10SM CLR 24/22 A2996 RMK AO2 SLP142 T02440222
KBRO 231253Z 00000KT 10SM FEW095 23/22 A2994 RMK AO2 SLP138 T02330222
KBRO 231153Z 34004KT 10SM CLR 23/22 A2992 RMK AO2 SLP130 60000 70087 T02330222 10261 20233 55005
KBRO 231053Z 34007KT 10SM CLR 23/22 A2991 RMK AO2 RAB08E22 SLP126 P0000 T02330222
KBRO 230953Z 31007KT 10SM FEW032 SCT110 24/23 A2992 RMK AO2 SLP131 T02440228
KBRO 230936Z 31007KT 10SM BKN030 OVC110 24/23 A2992 RMK AO2 T02440228
KBRO 230853Z 30006KT 10SM OVC027 26/23 A2993 RMK AO2 SLP135 60000 T02560233 55006
KBRO 230830Z 28006KT 10SM BKN029 BKN037 26/24 A2993 RMK AO2 T02560239
KBRO 230753Z 31006KT 10SM FEW028 26/24 A2993 RMK AO2 RAB05E16 SLP133 P0000 T02560239
KBRO 230713Z 29005KT 10SM -RA SCT028 BKN036 26/25 A2994 RMK AO2 RAB05 P0000 T02610250
KBRO 230653Z 31005KT 10SM BKN027 26/25 A2994 RMK AO2 SLP137 T02610250
KBRO 230553Z 24006KT 10SM OVC021 26/26 A2995 RMK AO2 LTG DSNT E RAE26 SLP141 P0001 60087 T02610256 10272 20250 403670250 51005
KBRO 230532Z 23006KT 10SM BKN020 BKN045 OVC070 26/25 A2995 RMK AO2 RAE26 P0001 T02610250
KBRO 230453Z 22006KT 10SM -RA FEW070 SCT090 26/25 A2995 RMK AO2 LTG DSNT NE RAE09B27 SLP140 P0000 T02610250
KBRO 230353Z 27004KT 10SM -RA FEW044 BKN100 26/24 A2995 RMK AO2 LTG DSNT SE AND SW TSB10E25 SLP139 P0086 T02560244
KBRO 230334Z 33004KT 4SM +RA BR BKN031 OVC085 25/24 A2995 RMK AO2 LTG DSNT SW TSB10E25 P0083 T02500244
KBRO 230326Z 30007KT 2SM +RA BR BKN024 BKN030 OVC036 25/24 A2995 RMK AO2 LTG DSNT SW TSB10E25 P0072 T02500244
KBRO 230323Z 28009KT 1 1/2SM +TSRA BR BKN020 BKN030 OVC036 25/24 A2995 RMK AO2 LTG DSNT SW TSB10 P0065 T02500239
KBRO 230314Z 30014KT 2 1/2SM +TSRA BR SCT024 BKN035 OVC050 26/25 A2995 RMK AO2 LTG DSNT SW TSB10 P0024 T02560250
KBRO 230253Z 28011G16KT 10SM -RA SCT041 BKN050 OVC065 27/25 A2994 RMK AO2 LTG DSNT NE AND W RAB30 SLP137 P0000 60000 T02720250 53020
KBRO 230153Z 00000KT 10SM OVC050 27/25 A2991 RMK AO2 LTG DSNT NE SLP127 T02670250
KBRO 230053Z 18004KT 10SM BKN060 BKN095 26/24 A2988 RMK AO2 RAE08 SLP118 P0000 T02610239
KBRO 222353Z 22004KT 10SM -RA FEW065 SCT080 BKN100 27/23 A2988 RMK AO2 RAB42 SLP117 P0000 60000 T02720228 10367 20261 51012
KBRO 222331Z 22004KT 10SM CLR 27/22 A2987 RMK AO2 LTG DSNT S T02670222
KBRO 222253Z 13008KT 10SM VCTS FEW045 SCT060 SCT070 28/25 A2987 RMK AO2 LTG DSNT S AND W RAB15E29 TSB2158E52 SLP114 P0000 T02780250
KBRO 222204Z 12009KT 10SM TS SCT047 BKN085 29/23 A2987 RMK AO2 LTG DSNT NE AND S AND SW TSB2158 T02890233
KBRO 222153Z 12009KT 10SM VCTS FEW049 BKN090 29/23 A2986 RMK AO2 LTG DSNT NE AND S AND SW TSB02E25 SLP111 T02940233
KBRO 222131Z 13008KT 10SM VCTS BKN049 BKN060 BKN085 30/24 A2986 RMK AO2 LTG DSNT ALQDS TSB02E25 T03000239
KBRO 222108Z 14015G20KT 10SM TS SCT049 OVC065 33/24 A2986 RMK AO2 LTG DSNT NE AND E AND SW TSB02 T03280239
KBRO 222053Z 14006KT 10SM VCTS BKN060 BKN080 33/24 A2985 RMK AO2 LTG DSNT E AND SW SLP105 T03330244 55017
KBRO 222049Z 15006KT 10SM VCTS SCT060 BKN090 33/24 A2984 RMK AO2 LTG DSNT E AND SW
KBRO 221953Z VRB04KT 10SM FEW070 36/22 A2987 RMK AO2 SLP115 T03560222
KBRO 221853Z VRB04KT 10SM SCT047 35/24 A2989 RMK AO2 SLP122 T03500239
KBRO 221753Z 20010G17KT 10SM FEW048 34/23 A2992 RMK AO2 SLP131 T03440233 10350 20267 58008
KBRO 221653Z 19010KT 10SM FEW030 FEW037 33/24 A2994 RMK AO2 SLP136 T03330244
KBRO 221553Z 21011KT 10SM CLR 32/26 A2994 RMK AO2 SLP136 T03220256
KBRO 221506Z 21008KT 10SM FEW018 FEW026 31/27 A2995 RMK AO2 T03060267
KBRO 221453Z 20008KT 10SM SCT018 BKN024 30/26 A2995 RMK AO2 SLP139 T03000261 52013